アルハンゲリスク の空港の天気 - METARとTAF

Arhangel'Sk ( ULAA / ARH ) - ロシア アルハンゲリスク
飛行場実況気象(Metar)
観測時間10/19 21:00 MSK (10/19 18:00 UTC)
風向・風速北西 3m/s
視程10km以上
天気現象
全天を覆う雲 雲底高度 730m
気温5℃
湿度87%
気圧1006hPa
METARULAA 191800Z 31003MPS 280V350 9999 OVC024CB 05/03 Q1006 R26/290060 NOSIG RMK QFE753/1004
過去の天気等 Google飛行場航空写真 Wunderground天気予報

過去48時間のMETAR

飛行場予報(TAF)
発表時間: 10/19 19:48 MSK (10/19 16:48 UTC)
予報対象時間: 19日21時 MSK ~ 20日21時 MSK
風向・風速西北西 4m/s
視程6000m
全天の8割程度の積乱雲 雲底高度 370m
19日21時 MSK ~ 20日9時 MSK に一時的に
風向・風速北 5m/s 瞬間風速 11m/s
視程2100m
天気現象弱いしゅう雨 もや
全天の8割程度の雲 雲底高度 210m
全天の8割程度の積乱雲 雲底高度 340m
20日9時 MSK から
風向・風速北北西 4m/s
視程10km以上
全天の8割程度の雲 雲底高度 400m
20日9時 MSK ~ 20日15時 MSK に一時的に
風向・風速北 3m/s 瞬間風速 8m/s
視程4000m
天気現象弱いしゅう雨
全天の8割程度の積乱雲 雲底高度 300m
TAF ULAA 191648Z 1918/2018 30004MPS 6000 BKN012CB
TEMPO 1918/2006 35005G11MPS 2100 -SHRA BR BKN007 BKN011CB
FM200600 33004MPS 9999 BKN013
TEMPO 2006/2012 36003G08MPS 4000 -SHRA BKN010CB